Long Lake, MN (55356)

9:38 AM CST on February 13, 2016 (GMT -0600)
West Arm | | Change Station
CLOSE
Current Station
Personal Weather Station
Location: Mound, MN
Elevation: 919 ft
Nearby Weather Stations

Elev 919 ft 44.95 °N, 93.64 °W | Updated 15 seconds ago

Mostly Cloudy
Mostly Cloudy
-5.3 °F
Feels Like -5 °F
N
0.9
Wind Variable Wind from South
Gusts 2.5 mph

Today
High -- | Low -- °F
--% Chance of Precip.
Yesterday
High -- | Low -- °F
Precip. -- in
Pressure 30.71 in
Visibility 10.0 miles
Clouds Clear
Windchill -5 °F
Dew Point -16 °F
Humidity 58%
Rainfall 0.00 in
Snow Depth Not available.
7:18 AM 5:38 PM
Waxing Crescent, 31% visible
METAR KMIC 131453Z 00000KT 10SM CLR M20/M24 A3064 RMK AO2 SLP400 T12001244 51004
Pressure 30.71 in
Visibility 10.0 miles
Clouds Clear
Windchill -5 °F
Dew Point -16 °F
Humidity 58%
Rainfall 0.00 in
Snow Depth Not available.
7:18 AM 5:38 PM
Waxing Crescent, 31% visible
METAR KMIC 131453Z 00000KT 10SM CLR M20/M24 A3064 RMK AO2 SLP400 T12001244 51004

10-Day Weather Forecast

Almanac

Astronomy

Feb. 13, 2016 Rise Set
Actual Time
Civil Twilight
Nautical Twilight
Astronomical Twilight
Moon
Length of Visible Light
Length of Day
Tomorrow will be .
, % of the Moon is Illuminated

Today's Extremes

State Highs State Lows

Community

WunderPhotos

Upload Photos

1,892,585 photos uploaded!

WunderBlog® & News

Nearby

Air Quality

  Air Quality AQ Index Pollutant
Not available.

Snow Depth

Station Depth Elevation

Earthquake Activity

City Distance Mag. Time & Date
Minimum magnitude displayed is 2.5.

Coastal Water Temperatures

Place Temperature

Stations

Nearby Weather Stations

Station Location Temp. Windchill Dew Point Humidity Wind Precip. Elev Updated Type
                   

Watches & Warnings

There are currently no watches in effect.